Time;durP1;ratioP1;P1;durP2;ratioP2;P2;SDS_P1;SDS_P2;PMS_P1;PMS_P2;Temp;Humidity;BMP_temperature;BMP_pressure;BME280_temperature;BME280_humidity;BME280_pressure;Samples;Min_cycle;Max_cycle;Signal;HPM_P1;HPM_P2
2021/12/31 00:00:01;;;;;;;22.60;3.83;;;11.80;99.90;;;;;;5053260;28;20184;-83
2021/12/31 00:02:27;;;;;;;23.92;3.75;;;11.80;99.90;;;;;;5037279;28;20203;-83
2021/12/31 00:04:53;;;;;;;22.95;3.70;;;11.80;99.90;;;;;;5057385;28;20120;-82
2021/12/31 00:07:19;;;;;;;28.77;4.60;;;11.80;99.90;;;;;;5058583;28;20040;-82
2021/12/31 00:09:46;;;;;;;17.23;4.28;;;12.20;99.90;;;;;;5024208;28;20048;-83
2021/12/31 00:12:11;;;;;;;21.00;4.00;;;11.90;99.90;;;;;;5056818;28;20051;-82
2021/12/31 00:14:37;;;;;;;14.90;3.30;;;11.80;99.90;;;;;;5052409;28;20036;-83
2021/12/31 00:17:04;;;;;;;22.05;5.07;;;11.90;99.90;;;;;;5037921;28;20508;-82
2021/12/31 00:19:33;;;;;;;23.15;4.38;;;11.90;99.90;;;;;;5055028;28;20706;-83
2021/12/31 00:22:10;;;;;;;19.67;3.80;;;11.90;99.90;;;;;;5056054;28;20032;-83
2021/12/31 00:24:36;;;;;;;21.77;3.88;;;11.80;99.90;;;;;;5067575;28;20052;-83
2021/12/31 00:27:01;;;;;;;18.65;3.45;;;11.90;99.90;;;;;;5031849;28;20028;-82
2021/12/31 00:29:27;;;;;;;25.92;4.78;;;11.80;99.90;;;;;;5063751;28;20488;-83
2021/12/31 00:31:53;;;;;;;23.33;4.93;;;11.80;99.90;;;;;;5030659;28;20067;-83
2021/12/31 00:34:19;;;;;;;19.60;5.47;;;11.80;99.90;;;;;;5052506;28;20072;-83
2021/12/31 00:36:45;;;;;;;23.88;4.57;;;11.80;99.90;;;;;;5053612;28;20044;-83
2021/12/31 00:39:12;;;;;;;20.80;4.78;;;11.80;99.90;;;;;;5053508;28;20044;-83
2021/12/31 00:41:38;;;;;;;23.13;4.47;;;11.80;99.90;;;;;;5067227;28;20052;-82
2021/12/31 00:44:05;;;;;;;16.02;3.70;;;11.80;99.90;;;;;;5067100;28;20032;-82
2021/12/31 00:46:31;;;;;;;22.17;4.60;;;11.80;99.90;;;;;;5065976;28;20044;-83
2021/12/31 00:48:57;;;;;;;24.73;5.18;;;11.80;99.90;;;;;;5049611;28;20067;-82
2021/12/31 00:51:24;;;;;;;19.95;3.88;;;11.80;99.90;;;;;;5055454;28;20087;-83
2021/12/31 00:53:50;;;;;;;21.55;4.35;;;11.80;99.90;;;;;;5052514;28;20083;-83
2021/12/31 00:56:15;;;;;;;18.08;4.25;;;11.90;99.90;;;;;;5062629;28;20132;-82
2021/12/31 00:58:41;;;;;;;19.02;5.00;;;11.90;99.90;;;;;;5065772;28;20036;-82
2021/12/31 01:01:07;;;;;;;27.92;4.22;;;11.90;99.90;;;;;;5048565;28;20039;-83
2021/12/31 01:03:32;;;;;;;19.38;4.43;;;11.90;99.90;;;;;;5049030;28;20051;-83
2021/12/31 01:05:59;;;;;;;22.10;4.50;;;12.00;99.90;;;;;;5034743;28;20044;-83
2021/12/31 01:08:24;;;;;;;20.55;4.43;;;12.00;99.90;;;;;;5051502;28;20028;-82
2021/12/31 01:10:50;;;;;;;21.88;5.15;;;11.90;99.90;;;;;;5052877;28;20495;-83
2021/12/31 01:13:26;;;;;;;22.95;4.88;;;11.90;99.90;;;;;;5054745;28;20415;-83
2021/12/31 01:15:57;;;;;;;20.25;4.78;;;12.00;99.90;;;;;;5067325;28;20097;-82
2021/12/31 01:19:43;;;;;;;15.00;3.63;;;12.00;99.90;;;;;;5039503;28;20496;-83
2021/12/31 01:21:08;;;;;;;22.48;4.57;;;11.90;99.90;;;;;;5068290;28;20385;-81
2021/12/31 01:23:35;;;;;;;17.13;4.10;;;12.10;99.90;;;;;;5053956;28;20043;-83
2021/12/31 01:26:01;;;;;;;20.48;4.38;;;12.00;99.90;;;;;;5033302;28;20052;-83
2021/12/31 01:28:27;;;;;;;21.60;4.18;;;12.00;99.90;;;;;;5052387;28;20282;-82
2021/12/31 01:30:52;;;;;;;19.20;5.18;;;12.00;99.90;;;;;;5037761;28;20504;-83
2021/12/31 01:33:18;;;;;;;23.83;5.35;;;12.10;99.90;;;;;;5067665;28;20028;-83
2021/12/31 01:35:44;;;;;;;24.90;5.65;;;12.00;99.90;;;;;;5051772;28;20044;-82
2021/12/31 01:38:09;;;;;;;22.67;4.70;;;12.10;99.90;;;;;;5041214;28;20108;-81
2021/12/31 01:40:35;;;;;;;24.13;5.05;;;12.10;99.90;;;;;;5051999;28;20532;-82
2021/12/31 01:43:01;;;;;;;20.92;5.25;;;12.10;99.90;;;;;;5052784;28;20040;-83
2021/12/31 01:45:30;;;;;;;20.80;4.47;;;12.10;99.90;;;;;;5068427;28;20028;-83
2021/12/31 01:48:00;;;;;;;15.40;4.20;;;12.10;99.90;;;;;;5036473;28;20045;-82
2021/12/31 01:50:28;;;;;;;25.35;5.43;;;12.10;99.90;;;;;;5039384;28;20449;-82
2021/12/31 01:52:54;;;;;;;21.95;4.07;;;12.10;99.90;;;;;;5071169;28;20429;-82
2021/12/31 01:55:22;;;;;;;23.35;4.85;;;12.10;99.90;;;;;;5068950;28;20040;-82
2021/12/31 01:57:48;;;;;;;19.63;4.10;;;12.10;99.90;;;;;;5068764;28;20189;-83
2021/12/31 02:00:14;;;;;;;24.70;4.65;;;12.10;99.90;;;;;;5065971;28;20052;-82
2021/12/31 02:02:46;;;;;;;17.83;4.22;;;12.10;99.90;;;;;;5066715;28;20046;-81
2021/12/31 02:05:13;;;;;;;20.15;4.10;;;12.10;99.90;;;;;;5069661;28;20052;-82
2021/12/31 02:07:39;;;;;;;20.13;3.92;;;12.10;99.90;;;;;;5064644;28;20122;-83
2021/12/31 02:10:07;;;;;;;15.60;4.45;;;12.10;99.90;;;;;;5055826;28;20035;-83
2021/12/31 02:12:32;;;;;;;19.17;3.58;;;12.10;99.90;;;;;;5058009;28;20036;-83
2021/12/31 02:14:59;;;;;;;20.27;4.45;;;12.00;99.90;;;;;;5073160;28;20419;-83
2021/12/31 02:17:24;;;;;;;16.33;4.07;;;12.10;99.90;;;;;;5055683;28;20047;-83
2021/12/31 02:20:08;;;;;;;18.55;4.00;;;12.00;99.90;;;;;;5033723;28;20040;-82
2021/12/31 02:22:39;;;;;;;17.27;3.67;;;12.00;99.90;;;;;;5064906;28;20045;-83
2021/12/31 02:25:06;;;;;;;21.80;4.78;;;12.10;99.90;;;;;;5048938;28;20579;-83
2021/12/31 02:27:39;;;;;;;20.75;4.15;;;12.10;99.90;;;;;;5060764;28;20028;-83
2021/12/31 02:30:08;;;;;;;18.75;3.88;;;12.10;99.90;;;;;;5059758;28;20668;-83
2021/12/31 02:32:33;;;;;;;24.38;4.60;;;12.10;99.90;;;;;;5064921;28;20039;-83
2021/12/31 02:34:59;;;;;;;18.20;3.97;;;12.10;99.90;;;;;;5059207;28;20041;-83
2021/12/31 02:37:25;;;;;;;20.88;3.90;;;12.10;99.90;;;;;;5063678;28;20044;-83
2021/12/31 02:39:51;;;;;;;17.17;4.03;;;12.10;99.90;;;;;;5067317;28;20130;-83
2021/12/31 02:42:16;;;;;;;17.98;4.18;;;12.10;99.90;;;;;;5048833;28;20460;-83
2021/12/31 02:44:43;;;;;;;12.88;3.75;;;12.20;99.90;;;;;;5047692;28;20040;-83
2021/12/31 02:47:09;;;;;;;16.13;3.47;;;12.20;99.90;;;;;;5051027;28;20035;-83
2021/12/31 02:49:39;;;;;;;12.40;3.45;;;12.20;99.90;;;;;;5063104;28;20410;-82
2021/12/31 02:52:08;;;;;;;10.77;3.50;;;12.20;99.90;;;;;;5050967;28;20032;-82
2021/12/31 02:54:37;;;;;;;14.35;3.63;;;12.20;99.90;;;;;;5043933;28;20032;-83
2021/12/31 02:57:07;;;;;;;18.95;4.47;;;12.20;99.90;;;;;;5059529;28;20048;-83
2021/12/31 02:59:36;;;;;;;18.23;3.72;;;12.20;99.90;;;;;;5029924;28;20043;-83
2021/12/31 03:02:06;;;;;;;11.48;3.50;;;12.30;99.90;;;;;;5032486;28;20028;-83
2021/12/31 03:04:35;;;;;;;15.63;3.42;;;12.30;99.90;;;;;;5034077;28;20029;-82
2021/12/31 03:07:06;;;;;;;15.95;3.83;;;12.30;99.90;;;;;;5080819;28;20051;-82
2021/12/31 03:09:33;;;;;;;14.10;3.55;;;12.30;99.90;;;;;;5063692;28;20457;-83
2021/12/31 03:12:00;;;;;;;16.05;3.35;;;12.30;99.90;;;;;;5031679;28;20044;-83
2021/12/31 03:14:28;;;;;;;16.83;4.18;;;12.30;99.90;;;;;;5068973;28;20483;-83
2021/12/31 03:16:53;;;;;;;16.70;3.25;;;12.30;99.90;;;;;;5056948;28;20035;-82
2021/12/31 03:19:20;;;;;;;17.17;4.13;;;12.30;99.90;;;;;;5050503;28;20040;-83
2021/12/31 03:21:46;;;;;;;15.50;4.38;;;12.30;99.90;;;;;;5065084;28;20281;-83
2021/12/31 03:24:12;;;;;;;18.52;4.07;;;12.30;99.90;;;;;;5066175;28;20039;-83
2021/12/31 03:26:38;;;;;;;18.40;3.92;;;12.30;99.90;;;;;;5067070;28;20408;-83
2021/12/31 03:29:04;;;;;;;17.67;3.92;;;12.30;99.90;;;;;;5047205;28;20036;-83
2021/12/31 03:31:30;;;;;;;13.57;4.00;;;12.30;99.90;;;;;;5070146;28;20055;-82
2021/12/31 03:33:56;;;;;;;11.63;2.85;;;12.30;99.90;;;;;;5054597;28;20492;-82
2021/12/31 03:36:22;;;;;;;19.42;4.68;;;12.30;99.90;;;;;;5052788;28;20040;-82
2021/12/31 03:38:47;;;;;;;16.30;3.10;;;12.30;99.90;;;;;;5057043;28;20043;-83
2021/12/31 03:41:13;;;;;;;15.05;4.40;;;12.40;99.90;;;;;;5051359;28;20208;-82
2021/12/31 03:43:39;;;;;;;12.32;3.78;;;12.30;99.90;;;;;;5051088;28;20044;-83
2021/12/31 03:46:07;;;;;;;16.38;3.50;;;12.30;99.90;;;;;;5038758;28;20400;-83
2021/12/31 03:48:33;;;;;;;17.92;3.42;;;12.40;99.90;;;;;;5049549;28;20044;-82
2021/12/31 03:50:58;;;;;;;17.23;4.30;;;12.40;99.90;;;;;;5069925;28;20157;-83
2021/12/31 03:53:24;;;;;;;15.93;3.63;;;12.40;99.90;;;;;;5056086;28;20367;-83
2021/12/31 03:55:50;;;;;;;13.60;3.90;;;12.40;99.90;;;;;;5070161;28;20036;-82
2021/12/31 03:58:16;;;;;;;17.95;3.10;;;12.50;99.90;;;;;;5035552;28;20139;-84
2021/12/31 04:00:42;;;;;;;16.75;3.33;;;12.50;99.90;;;;;;5069108;28;20038;-83
2021/12/31 04:03:10;;;;;;;13.38;3.33;;;12.50;99.90;;;;;;5061007;28;20064;-83
2021/12/31 04:05:37;;;;;;;11.45;3.08;;;12.50;99.90;;;;;;5082494;28;20048;-83
2021/12/31 04:08:04;;;;;;;13.63;3.17;;;12.50;99.90;;;;;;5054285;28;20119;-83
2021/12/31 04:10:30;;;;;;;11.65;3.47;;;12.50;99.90;;;;;;5065057;28;20066;-83
2021/12/31 04:12:56;;;;;;;12.20;3.20;;;12.50;99.90;;;;;;5063502;28;20496;-83
2021/12/31 04:15:22;;;;;;;15.82;4.93;;;12.50;99.90;;;;;;5050996;28;20048;-82
2021/12/31 04:17:47;;;;;;;13.63;3.60;;;12.50;99.90;;;;;;5047661;28;20515;-83
2021/12/31 04:20:32;;;;;;;19.10;3.17;;;12.50;99.90;;;;;;5053826;28;20036;-83
2021/12/31 04:22:58;;;;;;;13.68;3.13;;;12.50;99.90;;;;;;5065149;28;20048;-82
2021/12/31 04:25:24;;;;;;;17.55;3.60;;;12.70;99.90;;;;;;5050426;28;20048;-82
2021/12/31 04:27:51;;;;;;;14.40;3.30;;;13.10;99.90;;;;;;5034143;28;20032;-83
2021/12/31 04:30:17;;;;;;;10.75;3.50;;;12.50;99.90;;;;;;5052103;28;21166;-82
2021/12/31 04:32:43;;;;;;;12.43;2.92;;;12.60;99.90;;;;;;5068294;28;20067;-83
2021/12/31 04:35:11;;;;;;;12.20;4.15;;;12.60;99.90;;;;;;5049143;28;20102;-82
2021/12/31 04:37:39;;;;;;;9.77;3.20;;;12.60;99.90;;;;;;5049348;28;20051;-82
2021/12/31 04:40:07;;;;;;;10.52;3.15;;;12.60;99.90;;;;;;5037058;28;20036;-83
2021/12/31 04:42:33;;;;;;;12.63;3.22;;;12.60;99.90;;;;;;5068240;28;20122;-83
2021/12/31 04:44:59;;;;;;;13.10;2.95;;;12.60;99.90;;;;;;5033867;28;20115;-82
2021/12/31 04:47:24;;;;;;;12.15;2.90;;;12.60;99.90;;;;;;5037074;28;20040;-82
2021/12/31 04:49:50;;;;;;;10.77;3.15;;;12.60;99.90;;;;;;5053000;28;20047;-82
2021/12/31 04:52:16;;;;;;;14.88;3.80;;;12.60;99.90;;;;;;5056455;28;20410;-83
2021/12/31 04:54:41;;;;;;;13.35;2.67;;;12.50;99.90;;;;;;5069382;28;20036;-83
2021/12/31 04:57:07;;;;;;;9.93;2.55;;;12.70;99.90;;;;;;5036447;28;20108;-83
2021/12/31 04:59:33;;;;;;;14.77;3.35;;;12.50;99.90;;;;;;5033467;28;20070;-82
2021/12/31 05:01:59;;;;;;;10.23;2.70;;;12.50;99.90;;;;;;5066572;28;20090;-83
2021/12/31 05:04:25;;;;;;;12.20;3.65;;;12.50;99.90;;;;;;5048630;28;20032;-82
2021/12/31 05:06:51;;;;;;;10.95;3.03;;;12.40;99.90;;;;;;5037781;28;20397;-82
2021/12/31 05:09:17;;;;;;;10.35;3.20;;;12.50;99.90;;;;;;5014408;28;20043;-83
2021/12/31 05:11:43;;;;;;;8.20;3.47;;;12.50;99.90;;;;;;5065963;28;20043;-83
2021/12/31 05:14:09;;;;;;;10.02;2.90;;;12.50;99.90;;;;;;5069819;28;20862;-82
2021/12/31 05:16:36;;;;;;;9.98;2.85;;;12.40;99.90;;;;;;5055297;28;20602;-82
2021/12/31 05:19:03;;;;;;;9.68;3.28;;;12.40;99.90;;;;;;5051678;28;20070;-83
2021/12/31 05:21:29;;;;;;;9.27;2.95;;;12.40;99.90;;;;;;5050797;28;20496;-83
2021/12/31 05:23:55;;;;;;;10.20;2.65;;;12.50;99.90;;;;;;5035850;28;20511;-83
2021/12/31 05:26:21;;;;;;;8.43;2.60;;;12.50;99.90;;;;;;5053229;28;22165;-81
2021/12/31 05:28:47;;;;;;;7.70;2.78;;;12.50;99.90;;;;;;5046686;22;20032;-65
2021/12/31 05:31:12;;;;;;;9.02;2.25;;;12.50;99.90;;;;;;5036936;28;20403;-65
2021/12/31 05:33:38;;;;;;;9.77;2.60;;;12.50;99.90;;;;;;5042512;28;20197;-65
2021/12/31 05:36:04;;;;;;;9.93;2.70;;;12.50;99.90;;;;;;5036153;28;20040;-64
2021/12/31 05:38:30;;;;;;;6.70;2.58;;;12.50;99.90;;;;;;5026127;28;20194;-64
2021/12/31 05:40:55;;;;;;;8.02;2.47;;;12.50;99.90;;;;;;5038322;28;20097;-65
2021/12/31 05:43:24;;;;;;;6.40;2.38;;;12.50;99.90;;;;;;5044618;28;20040;-65
2021/12/31 05:45:50;;;;;;;9.18;2.65;;;12.60;99.90;;;;;;5039496;28;20174;-64
2021/12/31 05:48:16;;;;;;;6.85;2.67;;;12.60;99.90;;;;;;5037191;28;20198;-64
2021/12/31 05:50:41;;;;;;;6.78;3.03;;;12.60;99.90;;;;;;5055929;28;20043;-64
2021/12/31 05:53:07;;;;;;;8.15;2.70;;;12.60;99.90;;;;;;5042561;28;20105;-65
2021/12/31 05:55:33;;;;;;;8.95;2.60;;;12.60;99.90;;;;;;5025019;28;20055;-64
2021/12/31 05:58:01;;;;;;;8.07;2.45;;;12.60;99.90;;;;;;5022784;28;20046;-65
2021/12/31 06:00:27;;;;;;;8.55;2.50;;;12.60;99.90;;;;;;5036731;28;22097;-64
2021/12/31 06:02:53;;;;;;;8.63;3.03;;;12.60;99.90;;;;;;5037501;28;20068;-65
2021/12/31 06:05:19;;;;;;;8.00;2.33;;;12.60;99.90;;;;;;5037538;28;20041;-64
2021/12/31 06:07:45;;;;;;;7.22;2.47;;;12.60;99.90;;;;;;5037355;28;20068;-64
2021/12/31 06:10:11;;;;;;;14.30;3.40;;;12.60;99.90;;;;;;5039548;28;20464;-64
2021/12/31 06:12:38;;;;;;;9.27;2.58;;;12.60;99.90;;;;;;5039660;28;20621;-64
2021/12/31 06:15:08;;;;;;;7.38;2.40;;;12.60;99.90;;;;;;5039326;28;20185;-64
2021/12/31 06:17:34;;;;;;;8.73;2.65;;;12.60;99.90;;;;;;5041310;28;20044;-64
2021/12/31 06:20:00;;;;;;;8.20;2.67;;;12.60;99.90;;;;;;5023166;28;20048;-63
2021/12/31 06:22:26;;;;;;;8.18;2.63;;;12.60;99.90;;;;;;5021251;28;20045;-63
2021/12/31 06:24:52;;;;;;;9.63;2.90;;;12.60;99.90;;;;;;5039517;28;20029;-65
2021/12/31 06:27:18;;;;;;;7.88;2.10;;;12.60;99.90;;;;;;5035208;28;20037;-65
2021/12/31 06:29:44;;;;;;;5.90;2.33;;;12.60;99.90;;;;;;5024083;28;20119;-64
2021/12/31 06:32:10;;;;;;;7.82;2.15;;;12.60;99.90;;;;;;5016272;28;20548;-63
2021/12/31 06:34:36;;;;;;;9.15;2.70;;;12.60;99.90;;;;;;5036106;28;20687;-65
2021/12/31 06:37:02;;;;;;;9.23;2.78;;;12.60;99.90;;;;;;5053927;28;20097;-63
2021/12/31 06:39:28;;;;;;;7.28;2.45;;;12.60;99.90;;;;;;5016184;28;20043;-64
2021/12/31 06:41:54;;;;;;;9.48;2.90;;;12.50;99.90;;;;;;5056021;28;20045;-64
2021/12/31 06:44:20;;;;;;;5.80;2.10;;;12.50;99.90;;;;;;5024627;28;20978;-64
2021/12/31 06:46:46;;;;;;;6.43;2.60;;;12.50;99.90;;;;;;5041466;28;20495;-64
2021/12/31 06:49:12;;;;;;;8.65;2.40;;;12.50;99.90;;;;;;5038584;28;20054;-64
2021/12/31 06:51:38;;;;;;;6.18;2.10;;;12.50;99.90;;;;;;5032771;28;20040;-65
2021/12/31 06:54:04;;;;;;;5.88;2.35;;;12.50;99.90;;;;;;5025854;28;20059;-64
2021/12/31 06:56:30;;;;;;;8.82;2.22;;;12.50;99.90;;;;;;5042590;28;20526;-65
2021/12/31 06:58:55;;;;;;;6.03;2.20;;;12.40;99.90;;;;;;5043844;28;20036;-63
2021/12/31 07:01:21;;;;;;;8.35;2.78;;;12.40;99.90;;;;;;5034803;28;20089;-64
2021/12/31 07:03:48;;;;;;;4.40;2.05;;;12.40;99.90;;;;;;5035659;28;20048;-64
2021/12/31 07:06:14;;;;;;;7.32;2.40;;;12.40;99.90;;;;;;5037764;28;20048;-64
2021/12/31 07:08:40;;;;;;;9.35;2.40;;;12.40;99.90;;;;;;5055419;28;20039;-65
2021/12/31 07:11:06;;;;;;;5.97;2.00;;;12.30;99.90;;;;;;5021721;28;20071;-65
2021/12/31 07:13:32;;;;;;;8.93;2.58;;;12.30;99.90;;;;;;5036665;28;20083;-65
2021/12/31 07:15:58;;;;;;;9.98;3.28;;;12.30;99.90;;;;;;5063093;28;20628;-64
2021/12/31 07:18:24;;;;;;;9.68;2.85;;;12.30;99.90;;;;;;5022958;28;20515;-65
2021/12/31 07:20:50;;;;;;;6.85;2.22;;;12.30;99.90;;;;;;5023349;28;20569;-64
2021/12/31 07:23:19;;;;;;;6.90;2.25;;;12.30;99.90;;;;;;5038342;28;20479;-65
2021/12/31 07:25:45;;;;;;;7.65;2.08;;;12.30;99.90;;;;;;5024251;28;20040;-65
2021/12/31 07:28:12;;;;;;;5.97;2.38;;;12.10;99.90;;;;;;5033543;28;20059;-65
2021/12/31 07:30:38;;;;;;;6.70;2.63;;;12.20;99.90;;;;;;5023378;28;20045;-65
2021/12/31 07:33:05;;;;;;;10.75;3.17;;;12.20;99.90;;;;;;5005135;28;20093;-65
2021/12/31 07:35:31;;;;;;;6.50;2.30;;;12.20;99.90;;;;;;5018824;28;20049;-64
2021/12/31 07:37:58;;;;;;;8.18;2.30;;;12.20;99.90;;;;;;5036705;28;20668;-63
2021/12/31 07:40:32;;;;;;;6.22;2.80;;;12.20;99.90;;;;;;5040089;28;20036;-65
2021/12/31 07:42:58;;;;;;;6.85;2.33;;;12.20;99.90;;;;;;5010765;28;20059;-62
2021/12/31 07:45:24;;;;;;;12.98;2.75;;;12.10;99.90;;;;;;5040588;28;20283;-62
2021/12/31 07:47:50;;;;;;;9.13;2.97;;;12.10;99.90;;;;;;5043505;28;20040;-62
2021/12/31 07:50:15;;;;;;;8.93;2.38;;;12.10;99.90;;;;;;5017975;28;20087;-61
2021/12/31 07:52:41;;;;;;;7.35;2.42;;;12.10;99.90;;;;;;5039011;28;20044;-61
2021/12/31 07:55:08;;;;;;;7.07;2.55;;;12.10;99.90;;;;;;5009892;28;20063;-61
2021/12/31 07:57:33;;;;;;;9.10;3.30;;;12.10;99.90;;;;;;5024095;28;20423;-61
2021/12/31 07:59:59;;;;;;;7.18;2.17;;;12.10;99.90;;;;;;5054941;28;20040;-64
2021/12/31 08:02:25;;;;;;;10.20;2.53;;;12.10;99.90;;;;;;5040367;28;20040;-65
2021/12/31 08:04:50;;;;;;;7.22;2.90;;;12.10;99.90;;;;;;5019998;28;20053;-66
2021/12/31 08:07:16;;;;;;;12.45;2.50;;;12.10;99.90;;;;;;5038567;28;20395;-65
2021/12/31 08:09:42;;;;;;;9.75;2.80;;;12.00;99.90;;;;;;5021444;28;20492;-65
2021/12/31 08:12:08;;;;;;;10.13;3.03;;;12.10;99.90;;;;;;5015509;28;20041;-65
2021/12/31 08:14:33;;;;;;;10.05;4.65;;;12.10;99.90;;;;;;5036859;28;20166;-65
2021/12/31 08:16:59;;;;;;;11.02;4.50;;;12.10;99.90;;;;;;5022576;28;20130;-65
2021/12/31 08:19:25;;;;;;;11.57;2.60;;;12.10;99.90;;;;;;5042758;28;20421;-65
2021/12/31 08:21:50;;;;;;;10.07;3.80;;;12.10;99.90;;;;;;5038787;28;20048;-65
2021/12/31 08:24:16;;;;;;;7.32;3.15;;;12.20;99.90;;;;;;5042810;28;20032;-63
2021/12/31 08:26:42;;;;;;;10.07;3.03;;;12.20;99.90;;;;;;5030702;28;20036;-62
2021/12/31 08:29:08;;;;;;;11.90;3.22;;;12.20;99.90;;;;;;5033604;28;20597;-62
2021/12/31 08:31:35;;;;;;;7.30;2.80;;;12.20;99.90;;;;;;5028189;28;20048;-64
2021/12/31 08:34:01;;;;;;;8.60;2.88;;;12.20;99.90;;;;;;5038771;28;20036;-63
2021/12/31 08:36:26;;;;;;;8.52;2.70;;;12.30;99.90;;;;;;5046069;28;20056;-65
2021/12/31 08:38:52;;;;;;;10.77;5.70;;;12.30;99.90;;;;;;5041822;28;20143;-65
2021/12/31 08:41:18;;;;;;;10.70;4.60;;;12.30;99.90;;;;;;5041213;28;20338;-65
2021/12/31 08:43:43;;;;;;;20.70;10.20;;;12.30;99.90;;;;;;5043719;28;20051;-63
2021/12/31 08:46:09;;;;;;;9.23;3.05;;;12.30;99.90;;;;;;5028685;28;20134;-63
2021/12/31 08:48:35;;;;;;;11.20;3.97;;;12.20;99.90;;;;;;5029904;28;20103;-63
2021/12/31 08:51:00;;;;;;;9.40;3.42;;;12.30;99.90;;;;;;5006038;28;20576;-67
2021/12/31 08:53:26;;;;;;;11.02;3.97;;;12.30;99.90;;;;;;5039346;28;20058;-64
2021/12/31 08:55:52;;;;;;;11.32;3.35;;;12.30;99.90;;;;;;5026319;28;20505;-64
2021/12/31 08:58:17;;;;;;;7.22;2.55;;;12.30;99.90;;;;;;5025435;28;20048;-63
2021/12/31 09:00:43;;;;;;;10.32;2.67;;;12.30;99.90;;;;;;5040724;28;20036;-64
2021/12/31 09:03:09;;;;;;;12.40;2.78;;;12.20;99.90;;;;;;5036439;28;20135;-64
2021/12/31 09:05:35;;;;;;;11.25;3.60;;;12.20;99.90;;;;;;5036632;28;20120;-64
2021/12/31 09:08:00;;;;;;;9.70;3.28;;;12.20;99.90;;;;;;5004640;28;20040;-64
2021/12/31 09:10:26;;;;;;;11.30;3.50;;;12.20;99.90;;;;;;5025972;28;20071;-63
2021/12/31 09:12:52;;;;;;;7.40;3.42;;;12.20;99.90;;;;;;5042811;28;20044;-63
2021/12/31 09:15:18;;;;;;;7.22;2.92;;;12.20;99.90;;;;;;5042302;28;20231;-64
2021/12/31 09:17:44;;;;;;;9.23;2.50;;;12.20;99.90;;;;;;5034163;28;20449;-64
2021/12/31 09:20:10;;;;;;;9.13;2.70;;;12.20;99.90;;;;;;5022154;28;20033;-65
2021/12/31 09:22:36;;;;;;;13.23;3.00;;;12.30;99.90;;;;;;5041635;28;20072;-63
2021/12/31 09:25:03;;;;;;;10.50;4.22;;;12.30;99.90;;;;;;5022908;28;20067;-65
2021/12/31 09:27:29;;;;;;;10.10;3.30;;;12.30;99.90;;;;;;5048480;28;20570;-65
2021/12/31 09:29:55;;;;;;;8.02;3.00;;;12.30;99.90;;;;;;5037386;28;20119;-63
2021/12/31 09:32:22;;;;;;;10.98;3.22;;;12.30;99.90;;;;;;5036675;28;20135;-65
2021/12/31 09:34:48;;;;;;;5.53;2.70;;;12.30;99.90;;;;;;5059926;28;20138;-63
2021/12/31 09:37:14;;;;;;;8.15;3.00;;;12.20;99.90;;;;;;5045028;28;20721;-65
2021/12/31 09:39:42;;;;;;;15.40;3.92;;;12.20;99.90;;;;;;5038365;28;20041;-65
2021/12/31 09:42:08;;;;;;;14.35;3.83;;;12.20;99.90;;;;;;5033502;28;20384;-65
2021/12/31 09:44:38;;;;;;;9.63;3.97;;;12.20;99.90;;;;;;5052681;28;20041;-64
2021/12/31 09:47:12;;;;;;;14.68;4.13;;;12.20;99.90;;;;;;5059832;28;20862;-64
2021/12/31 09:49:39;;;;;;;12.95;3.97;;;12.10;99.90;;;;;;5035889;28;20052;-64
2021/12/31 09:52:08;;;;;;;13.38;4.00;;;12.10;99.90;;;;;;5039049;28;20044;-64
2021/12/31 09:54:33;;;;;;;10.05;3.45;;;12.10;99.90;;;;;;5036475;28;20044;-65
2021/12/31 09:57:02;;;;;;;14.10;5.28;;;12.10;99.90;;;;;;5039328;28;20044;-65
2021/12/31 09:59:28;;;;;;;15.50;3.70;;;12.00;99.90;;;;;;5031310;28;20044;-65
2021/12/31 10:01:56;;;;;;;16.10;3.50;;;12.20;99.90;;;;;;5038138;28;20033;-64
2021/12/31 10:04:22;;;;;;;11.63;3.30;;;12.00;99.90;;;;;;5039658;28;20036;-63
2021/12/31 10:07:07;;;;;;;15.48;4.80;;;12.00;99.90;;;;;;5039818;28;20033;-64
2021/12/31 10:09:35;;;;;;;13.15;4.07;;;12.00;99.90;;;;;;5013804;28;20052;-65
2021/12/31 10:12:02;;;;;;;10.15;3.20;;;12.00;99.90;;;;;;5033429;28;20078;-65
2021/12/31 10:14:39;;;;;;;12.85;3.63;;;11.90;99.90;;;;;;5039249;28;20124;-64
2021/12/31 10:17:06;;;;;;;13.32;4.72;;;11.90;99.90;;;;;;5015821;28;20384;-63
2021/12/31 10:19:32;;;;;;;13.95;3.67;;;11.90;99.90;;;;;;5030782;28;20051;-66
2021/12/31 10:22:00;;;;;;;18.25;4.65;;;11.90;99.90;;;;;;5036669;28;20383;-65
2021/12/31 10:24:35;;;;;;;14.00;4.20;;;11.90;99.90;;;;;;5039610;28;20119;-64
2021/12/31 10:27:09;;;;;;;9.60;4.05;;;11.90;99.90;;;;;;5043670;28;20032;-64
2021/12/31 10:29:54;;;;;;;14.63;5.43;;;11.90;99.90;;;;;;5038627;28;20605;-65
2021/12/31 10:32:30;;;;;;;10.68;4.30;;;11.90;99.90;;;;;;5026697;28;20443;-65
2021/12/31 10:35:14;;;;;;;11.50;3.50;;;11.90;99.90;;;;;;5036361;28;20695;-66
2021/12/31 10:37:58;;;;;;;17.23;4.97;;;11.90;99.90;;;;;;5043498;28;20047;-64
2021/12/31 10:40:40;;;;;;;11.10;3.45;;;11.90;99.90;;;;;;5024233;28;20036;-65
2021/12/31 10:43:18;;;;;;;14.23;3.50;;;11.80;99.90;;;;;;5036513;28;21405;-66
2021/12/31 10:46:05;;;;;;;12.68;4.78;;;11.80;99.90;;;;;;5039664;28;20029;-65
2021/12/31 10:48:49;;;;;;;15.52;5.40;;;11.80;99.90;;;;;;5039394;28;20131;-64
2021/12/31 10:51:34;;;;;;;15.77;5.65;;;11.90;99.90;;;;;;5023269;28;20041;-64
2021/12/31 10:54:28;;;;;;;17.65;6.03;;;11.80;99.90;;;;;;5036582;28;20059;-64
2021/12/31 10:56:55;;;;;;;11.38;4.63;;;11.80;99.90;;;;;;5024967;28;20590;-65
2021/12/31 10:59:21;;;;;;;13.35;4.10;;;11.80;99.90;;;;;;5041652;28;20153;-65
2021/12/31 11:01:48;;;;;;;16.42;4.68;;;11.70;99.90;;;;;;5040243;28;20127;-64
2021/12/31 11:04:15;;;;;;;7.75;4.10;;;11.70;99.90;;;;;;5037792;28;20052;-64
2021/12/31 11:06:41;;;;;;;10.65;4.65;;;11.70;99.90;;;;;;5022213;28;20098;-64
2021/12/31 11:09:07;;;;;;;13.15;4.95;;;11.70;99.90;;;;;;5025313;28;20033;-65
2021/12/31 11:11:34;;;;;;;14.32;5.00;;;11.70;99.90;;;;;;5041262;28;20036;-63
2021/12/31 11:14:02;;;;;;;17.38;5.88;;;11.70;99.90;;;;;;5029380;28;20047;-65
2021/12/31 11:16:28;;;;;;;15.93;5.78;;;11.70;99.90;;;;;;5037008;28;20543;-65
2021/12/31 11:18:56;;;;;;;11.80;4.72;;;11.70;99.90;;;;;;5029811;28;20127;-65
2021/12/31 11:21:23;;;;;;;16.23;6.57;;;11.70;99.90;;;;;;5028006;28;20127;-64
2021/12/31 11:23:49;;;;;;;16.17;7.82;;;11.70;99.90;;;;;;5018273;28;20048;-64
2021/12/31 11:26:26;;;;;;;14.57;4.82;;;11.70;99.90;;;;;;5035617;28;20385;-64
2021/12/31 11:28:53;;;;;;;14.88;4.40;;;11.60;99.90;;;;;;5058355;22;20049;-62
2021/12/31 11:31:18;;;;;;;13.95;5.05;;;11.60;99.90;;;;;;5070197;28;20040;-60
2021/12/31 11:33:46;;;;;;;14.00;4.72;;;11.60;99.90;;;;;;5085720;28;20582;-62
2021/12/31 11:36:13;;;;;;;15.18;4.55;;;11.60;99.90;;;;;;5068488;28;20099;-61
2021/12/31 11:38:42;;;;;;;16.35;5.60;;;11.60;99.90;;;;;;5068590;28;20093;-63
2021/12/31 11:41:23;;;;;;;10.80;4.07;;;11.60;99.90;;;;;;5068337;28;20406;-62
2021/12/31 11:44:13;;;;;;;15.18;4.25;;;11.60;99.90;;;;;;5069132;28;20075;-63
2021/12/31 11:46:47;;;;;;;10.30;4.30;;;11.60;99.90;;;;;;5068359;28;20054;-62
2021/12/31 11:49:23;;;;;;;17.58;8.30;;;11.60;99.90;;;;;;5068595;28;20067;-62
2021/12/31 11:51:56;;;;;;;15.13;5.72;;;11.50;99.90;;;;;;5054710;28;20036;-63
2021/12/31 11:54:22;;;;;;;14.00;6.57;;;11.60;99.90;;;;;;5072610;28;20045;-61
2021/12/31 11:56:54;;;;;;;13.77;5.20;;;11.50;99.90;;;;;;5039290;28;20094;-62
2021/12/31 11:59:20;;;;;;;15.85;8.30;;;11.50;99.90;;;;;;5055705;28;20364;-61
2021/12/31 12:02:11;;;;;;;13.25;5.00;;;11.50;99.90;;;;;;5072392;28;20094;-61
2021/12/31 12:04:45;;;;;;;9.77;4.93;;;11.50;99.90;;;;;;5072292;28;20425;-62
2021/12/31 12:07:37;;;;;;;12.27;5.88;;;11.50;99.90;;;;;;5072384;28;20965;-62
2021/12/31 12:10:02;;;;;;;11.25;4.32;;;11.50;99.90;;;;;;5055251;28;20102;-62
2021/12/31 12:12:34;;;;;;;11.65;5.00;;;11.50;99.90;;;;;;5072319;28;20044;-61
2021/12/31 12:15:22;;;;;;;13.48;4.55;;;11.50;99.90;;;;;;5071997;28;20086;-62
2021/12/31 12:17:48;;;;;;;11.07;4.50;;;11.50;99.90;;;;;;5053175;28;20086;-61
2021/12/31 12:20:18;;;;;;;9.70;4.20;;;11.50;99.90;;;;;;5072987;28;20048;-60
2021/12/31 12:22:54;;;;;;;11.15;4.35;;;11.50;99.90;;;;;;5055532;28;20044;-61
2021/12/31 12:25:26;;;;;;;10.18;4.13;;;11.50;99.90;;;;;;5055734;28;20044;-60
2021/12/31 12:28:01;;;;;;;13.82;4.40;;;11.50;99.90;;;;;;5072076;28;20564;-61
2021/12/31 12:30:27;;;;;;;10.45;4.60;;;11.50;99.90;;;;;;5071249;28;20056;-61
2021/12/31 12:33:16;;;;;;;14.23;5.20;;;11.50;99.90;;;;;;5073180;28;20043;-62
2021/12/31 12:35:49;;;;;;;10.35;4.28;;;11.50;99.90;;;;;;5072898;28;20106;-63
2021/12/31 12:38:18;;;;;;;10.07;4.45;;;11.40;99.90;;;;;;5071714;28;20041;-63
2021/12/31 12:40:49;;;;;;;10.45;3.70;;;11.40;99.90;;;;;;5071787;28;20055;-62
2021/12/31 12:43:26;;;;;;;13.30;4.57;;;11.40;99.90;;;;;;5071638;28;20036;-62